sensor_id;sensor_type;location;lat;lon;timestamp;P1;durP1;ratioP1;P2;durP2;ratioP2
41219;SDS011;26951;47.338;9.196;2024-03-07T00:00:53;2.10;;;1.70;;
41219;SDS011;26951;47.338;9.196;2024-03-07T00:03:38;1.85;;;1.50;;
41219;SDS011;26951;47.338;9.196;2024-03-07T00:06:22;2.08;;;1.58;;
41219;SDS011;26951;47.338;9.196;2024-03-07T00:09:06;2.17;;;1.50;;
41219;SDS011;26951;47.338;9.196;2024-03-07T00:11:51;2.10;;;1.40;;
41219;SDS011;26951;47.338;9.196;2024-03-07T00:14:35;2.20;;;1.38;;
41219;SDS011;26951;47.338;9.196;2024-03-07T00:17:19;1.60;;;1.35;;
41219;SDS011;26951;47.338;9.196;2024-03-07T00:20:03;1.42;;;1.10;;
41219;SDS011;26951;47.338;9.196;2024-03-07T00:22:52;1.30;;;1.20;;
41219;SDS011;26951;47.338;9.196;2024-03-07T00:25:36;1.02;;;0.90;;
41219;SDS011;26951;47.338;9.196;2024-03-07T00:28:21;1.80;;;1.30;;
41219;SDS011;26951;47.338;9.196;2024-03-07T00:31:05;1.30;;;1.00;;
41219;SDS011;26951;47.338;9.196;2024-03-07T00:33:50;1.10;;;1.00;;
41219;SDS011;26951;47.338;9.196;2024-03-07T00:36:34;1.15;;;0.90;;
41219;SDS011;26951;47.338;9.196;2024-03-07T00:39:18;0.80;;;0.80;;
41219;SDS011;26951;47.338;9.196;2024-03-07T00:42:03;0.90;;;0.80;;
41219;SDS011;26951;47.338;9.196;2024-03-07T00:44:47;0.98;;;0.88;;
41219;SDS011;26951;47.338;9.196;2024-03-07T00:47:33;0.88;;;0.88;;
41219;SDS011;26951;47.338;9.196;2024-03-07T00:50:17;0.85;;;0.80;;
41219;SDS011;26951;47.338;9.196;2024-03-07T00:53:01;0.82;;;0.77;;
41219;SDS011;26951;47.338;9.196;2024-03-07T00:55:45;0.70;;;0.70;;
41219;SDS011;26951;47.338;9.196;2024-03-07T00:58:29;1.13;;;1.00;;
41219;SDS011;26951;47.338;9.196;2024-03-07T01:01:14;1.17;;;0.90;;
41219;SDS011;26951;47.338;9.196;2024-03-07T01:03:59;2.97;;;1.63;;
41219;SDS011;26951;47.338;9.196;2024-03-07T01:06:44;2.40;;;1.70;;
41219;SDS011;26951;47.338;9.196;2024-03-07T01:09:28;1.90;;;1.45;;
41219;SDS011;26951;47.338;9.196;2024-03-07T01:12:12;2.35;;;1.55;;
41219;SDS011;26951;47.338;9.196;2024-03-07T01:14:57;2.35;;;1.98;;
41219;SDS011;26951;47.338;9.196;2024-03-07T01:17:42;2.35;;;1.85;;
41219;SDS011;26951;47.338;9.196;2024-03-07T01:20:28;3.20;;;2.20;;
41219;SDS011;26951;47.338;9.196;2024-03-07T01:23:13;3.17;;;2.03;;
41219;SDS011;26951;47.338;9.196;2024-03-07T01:25:57;2.65;;;1.65;;
41219;SDS011;26951;47.338;9.196;2024-03-07T01:28:42;2.00;;;1.67;;
41219;SDS011;26951;47.338;9.196;2024-03-07T01:31:26;1.83;;;1.50;;
41219;SDS011;26951;47.338;9.196;2024-03-07T01:34:10;2.50;;;1.77;;
41219;SDS011;26951;47.338;9.196;2024-03-07T01:36:55;2.10;;;1.52;;
41219;SDS011;26951;47.338;9.196;2024-03-07T01:39:38;1.83;;;1.60;;
41219;SDS011;26951;47.338;9.196;2024-03-07T01:42:23;1.65;;;1.33;;
41219;SDS011;26951;47.338;9.196;2024-03-07T01:47:53;1.55;;;1.20;;
41219;SDS011;26951;47.338;9.196;2024-03-07T01:50:39;1.83;;;1.40;;
41219;SDS011;26951;47.338;9.196;2024-03-07T01:53:23;1.30;;;1.10;;
41219;SDS011;26951;47.338;9.196;2024-03-07T01:58:53;1.08;;;0.90;;
41219;SDS011;26951;47.338;9.196;2024-03-07T02:07:03;1.23;;;1.13;;
41219;SDS011;26951;47.338;9.196;2024-03-07T02:09:47;1.20;;;1.10;;
41219;SDS011;26951;47.338;9.196;2024-03-07T02:12:31;1.17;;;1.08;;
41219;SDS011;26951;47.338;9.196;2024-03-07T02:15:16;0.93;;;0.90;;
41219;SDS011;26951;47.338;9.196;2024-03-07T02:18:01;1.90;;;1.48;;
41219;SDS011;26951;47.338;9.196;2024-03-07T02:20:45;1.52;;;1.20;;
41219;SDS011;26951;47.338;9.196;2024-03-07T02:23:29;1.30;;;1.20;;
41219;SDS011;26951;47.338;9.196;2024-03-07T02:26:13;0.90;;;0.90;;
41219;SDS011;26951;47.338;9.196;2024-03-07T02:28:57;1.13;;;1.02;;
41219;SDS011;26951;47.338;9.196;2024-03-07T02:31:42;1.70;;;1.50;;
41219;SDS011;26951;47.338;9.196;2024-03-07T02:34:26;2.00;;;1.80;;
41219;SDS011;26951;47.338;9.196;2024-03-07T02:37:10;1.40;;;1.30;;
41219;SDS011;26951;47.338;9.196;2024-03-07T02:39:56;1.58;;;1.48;;
41219;SDS011;26951;47.338;9.196;2024-03-07T02:42:39;1.85;;;1.65;;
41219;SDS011;26951;47.338;9.196;2024-03-07T02:45:24;1.25;;;1.13;;
41219;SDS011;26951;47.338;9.196;2024-03-07T02:48:09;1.40;;;1.30;;
41219;SDS011;26951;47.338;9.196;2024-03-07T02:50:53;1.50;;;1.20;;
41219;SDS011;26951;47.338;9.196;2024-03-07T02:53:38;1.55;;;1.27;;
41219;SDS011;26951;47.338;9.196;2024-03-07T02:56:22;1.48;;;1.38;;
41219;SDS011;26951;47.338;9.196;2024-03-07T02:59:06;1.50;;;1.40;;
41219;SDS011;26951;47.338;9.196;2024-03-07T03:01:50;2.45;;;1.70;;
41219;SDS011;26951;47.338;9.196;2024-03-07T03:04:34;1.98;;;1.75;;
41219;SDS011;26951;47.338;9.196;2024-03-07T03:07:18;2.00;;;1.52;;
41219;SDS011;26951;47.338;9.196;2024-03-07T03:10:02;1.70;;;1.60;;
41219;SDS011;26951;47.338;9.196;2024-03-07T03:12:52;1.90;;;1.67;;
41219;SDS011;26951;47.338;9.196;2024-03-07T03:15:37;1.88;;;1.58;;
41219;SDS011;26951;47.338;9.196;2024-03-07T03:18:21;2.13;;;1.83;;
41219;SDS011;26951;47.338;9.196;2024-03-07T03:21:06;2.63;;;1.83;;
41219;SDS011;26951;47.338;9.196;2024-03-07T03:23:51;1.77;;;1.48;;
41219;SDS011;26951;47.338;9.196;2024-03-07T03:26:37;2.25;;;1.88;;
41219;SDS011;26951;47.338;9.196;2024-03-07T03:29:21;3.40;;;2.05;;
41219;SDS011;26951;47.338;9.196;2024-03-07T03:32:06;2.38;;;1.73;;
41219;SDS011;26951;47.338;9.196;2024-03-07T03:34:51;3.15;;;2.20;;
41219;SDS011;26951;47.338;9.196;2024-03-07T03:37:36;2.50;;;2.03;;
41219;SDS011;26951;47.338;9.196;2024-03-07T03:40:20;2.00;;;1.70;;
41219;SDS011;26951;47.338;9.196;2024-03-07T03:43:04;2.35;;;1.98;;
41219;SDS011;26951;47.338;9.196;2024-03-07T03:45:48;2.40;;;2.03;;
41219;SDS011;26951;47.338;9.196;2024-03-07T03:48:32;2.55;;;1.80;;
41219;SDS011;26951;47.338;9.196;2024-03-07T03:51:17;2.40;;;2.20;;
41219;SDS011;26951;47.338;9.196;2024-03-07T03:54:02;3.00;;;2.15;;
41219;SDS011;26951;47.338;9.196;2024-03-07T03:56:46;2.03;;;1.83;;
41219;SDS011;26951;47.338;9.196;2024-03-07T03:59:30;2.35;;;2.00;;
41219;SDS011;26951;47.338;9.196;2024-03-07T04:02:17;3.38;;;2.10;;
41219;SDS011;26951;47.338;9.196;2024-03-07T04:05:01;2.30;;;2.00;;
41219;SDS011;26951;47.338;9.196;2024-03-07T04:07:46;3.08;;;2.33;;
41219;SDS011;26951;47.338;9.196;2024-03-07T04:10:30;3.00;;;2.40;;
41219;SDS011;26951;47.338;9.196;2024-03-07T04:13:14;2.72;;;2.15;;
41219;SDS011;26951;47.338;9.196;2024-03-07T04:15:58;3.38;;;2.20;;
41219;SDS011;26951;47.338;9.196;2024-03-07T04:18:42;2.80;;;1.95;;
41219;SDS011;26951;47.338;9.196;2024-03-07T04:21:26;3.33;;;2.25;;
41219;SDS011;26951;47.338;9.196;2024-03-07T04:24:11;3.55;;;2.40;;
41219;SDS011;26951;47.338;9.196;2024-03-07T04:26:56;4.65;;;3.00;;
41219;SDS011;26951;47.338;9.196;2024-03-07T04:29:40;4.40;;;2.85;;
41219;SDS011;26951;47.338;9.196;2024-03-07T04:32:24;3.58;;;2.97;;
41219;SDS011;26951;47.338;9.196;2024-03-07T04:35:08;2.97;;;2.35;;
41219;SDS011;26951;47.338;9.196;2024-03-07T04:37:53;2.72;;;2.45;;
41219;SDS011;26951;47.338;9.196;2024-03-07T04:40:38;3.33;;;2.35;;
41219;SDS011;26951;47.338;9.196;2024-03-07T04:43:23;3.40;;;2.40;;
41219;SDS011;26951;47.338;9.196;2024-03-07T04:46:06;4.75;;;2.70;;
41219;SDS011;26951;47.338;9.196;2024-03-07T04:48:51;4.50;;;3.30;;
41219;SDS011;26951;47.338;9.196;2024-03-07T04:51:35;4.90;;;3.63;;
41219;SDS011;26951;47.338;9.196;2024-03-07T04:54:19;5.50;;;3.47;;
41219;SDS011;26951;47.338;9.196;2024-03-07T04:57:04;6.07;;;4.28;;
41219;SDS011;26951;47.338;9.196;2024-03-07T04:59:49;7.25;;;4.93;;
41219;SDS011;26951;47.338;9.196;2024-03-07T05:02:33;7.03;;;4.45;;
41219;SDS011;26951;47.338;9.196;2024-03-07T05:05:18;7.22;;;4.47;;
41219;SDS011;26951;47.338;9.196;2024-03-07T05:08:05;7.57;;;4.97;;
41219;SDS011;26951;47.338;9.196;2024-03-07T05:10:49;8.15;;;5.68;;
41219;SDS011;26951;47.338;9.196;2024-03-07T05:13:35;10.32;;;6.20;;
41219;SDS011;26951;47.338;9.196;2024-03-07T05:16:21;11.32;;;5.75;;
41219;SDS011;26951;47.338;9.196;2024-03-07T05:24:59;10.80;;;6.13;;
41219;SDS011;26951;47.338;9.196;2024-03-07T05:27:43;9.90;;;6.07;;
41219;SDS011;26951;47.338;9.196;2024-03-07T05:30:28;11.20;;;6.80;;
41219;SDS011;26951;47.338;9.196;2024-03-07T05:33:17;8.82;;;5.53;;
41219;SDS011;26951;47.338;9.196;2024-03-07T05:36:01;8.98;;;6.40;;
41219;SDS011;26951;47.338;9.196;2024-03-07T05:38:58;8.93;;;5.15;;
41219;SDS011;26951;47.338;9.196;2024-03-07T05:41:51;8.05;;;5.45;;
41219;SDS011;26951;47.338;9.196;2024-03-07T05:44:35;10.32;;;6.30;;
41219;SDS011;26951;47.338;9.196;2024-03-07T05:47:19;9.82;;;6.30;;
41219;SDS011;26951;47.338;9.196;2024-03-07T05:53:16;6.35;;;4.18;;
41219;SDS011;26951;47.338;9.196;2024-03-07T05:56:01;7.65;;;4.95;;
41219;SDS011;26951;47.338;9.196;2024-03-07T05:58:46;6.60;;;3.95;;
41219;SDS011;26951;47.338;9.196;2024-03-07T06:01:31;7.38;;;5.20;;
41219;SDS011;26951;47.338;9.196;2024-03-07T06:04:18;5.50;;;3.78;;
41219;SDS011;26951;47.338;9.196;2024-03-07T06:07:03;5.68;;;3.25;;
41219;SDS011;26951;47.338;9.196;2024-03-07T06:09:47;4.72;;;2.58;;
41219;SDS011;26951;47.338;9.196;2024-03-07T06:12:32;4.68;;;3.45;;
41219;SDS011;26951;47.338;9.196;2024-03-07T06:15:16;5.38;;;2.97;;
41219;SDS011;26951;47.338;9.196;2024-03-07T06:18:00;4.95;;;3.15;;
41219;SDS011;26951;47.338;9.196;2024-03-07T06:20:45;5.00;;;3.20;;
41219;SDS011;26951;47.338;9.196;2024-03-07T06:23:28;4.63;;;3.10;;
41219;SDS011;26951;47.338;9.196;2024-03-07T06:26:14;5.43;;;3.45;;
41219;SDS011;26951;47.338;9.196;2024-03-07T06:29:00;5.10;;;3.33;;
41219;SDS011;26951;47.338;9.196;2024-03-07T06:31:44;5.07;;;3.30;;
41219;SDS011;26951;47.338;9.196;2024-03-07T06:34:32;5.50;;;3.53;;
41219;SDS011;26951;47.338;9.196;2024-03-07T06:37:16;6.22;;;4.10;;
41219;SDS011;26951;47.338;9.196;2024-03-07T06:40:02;7.85;;;5.25;;
41219;SDS011;26951;47.338;9.196;2024-03-07T06:42:53;5.72;;;4.20;;
41219;SDS011;26951;47.338;9.196;2024-03-07T06:45:37;4.68;;;3.25;;
41219;SDS011;26951;47.338;9.196;2024-03-07T06:48:22;5.03;;;3.63;;
41219;SDS011;26951;47.338;9.196;2024-03-07T06:51:06;5.18;;;3.70;;
41219;SDS011;26951;47.338;9.196;2024-03-07T06:53:51;6.47;;;3.75;;
41219;SDS011;26951;47.338;9.196;2024-03-07T06:56:35;6.65;;;4.78;;
41219;SDS011;26951;47.338;9.196;2024-03-07T06:59:33;5.82;;;3.67;;
41219;SDS011;26951;47.338;9.196;2024-03-07T07:02:17;5.60;;;3.88;;
41219;SDS011;26951;47.338;9.196;2024-03-07T07:05:01;5.28;;;3.97;;
41219;SDS011;26951;47.338;9.196;2024-03-07T07:07:50;5.55;;;3.55;;
41219;SDS011;26951;47.338;9.196;2024-03-07T07:10:34;5.97;;;3.70;;
41219;SDS011;26951;47.338;9.196;2024-03-07T07:13:19;6.43;;;4.25;;
41219;SDS011;26951;47.338;9.196;2024-03-07T07:16:03;7.22;;;3.90;;
41219;SDS011;26951;47.338;9.196;2024-03-07T07:18:47;7.53;;;4.53;;
41219;SDS011;26951;47.338;9.196;2024-03-07T07:21:31;6.22;;;3.70;;
41219;SDS011;26951;47.338;9.196;2024-03-07T07:24:16;6.15;;;4.15;;
41219;SDS011;26951;47.338;9.196;2024-03-07T07:27:00;7.75;;;4.70;;
41219;SDS011;26951;47.338;9.196;2024-03-07T07:29:44;6.15;;;4.20;;
41219;SDS011;26951;47.338;9.196;2024-03-07T07:32:29;6.30;;;4.25;;
41219;SDS011;26951;47.338;9.196;2024-03-07T07:35:16;5.57;;;4.32;;
41219;SDS011;26951;47.338;9.196;2024-03-07T07:38:00;6.35;;;4.32;;
41219;SDS011;26951;47.338;9.196;2024-03-07T07:40:44;5.13;;;3.72;;
41219;SDS011;26951;47.338;9.196;2024-03-07T07:43:29;6.38;;;3.60;;
41219;SDS011;26951;47.338;9.196;2024-03-07T07:46:13;6.80;;;4.25;;
41219;SDS011;26951;47.338;9.196;2024-03-07T07:49:00;6.15;;;4.28;;
41219;SDS011;26951;47.338;9.196;2024-03-07T07:51:44;5.93;;;4.13;;
41219;SDS011;26951;47.338;9.196;2024-03-07T07:54:29;7.57;;;5.68;;
41219;SDS011;26951;47.338;9.196;2024-03-07T07:57:13;7.55;;;4.72;;
41219;SDS011;26951;47.338;9.196;2024-03-07T07:59:57;7.40;;;5.00;;
41219;SDS011;26951;47.338;9.196;2024-03-07T08:02:41;6.63;;;4.30;;
41219;SDS011;26951;47.338;9.196;2024-03-07T08:05:28;7.00;;;4.82;;
41219;SDS011;26951;47.338;9.196;2024-03-07T08:08:16;7.72;;;5.03;;
41219;SDS011;26951;47.338;9.196;2024-03-07T08:11:01;6.05;;;4.43;;
41219;SDS011;26951;47.338;9.196;2024-03-07T08:13:46;7.45;;;4.68;;
41219;SDS011;26951;47.338;9.196;2024-03-07T08:16:34;7.85;;;5.05;;
41219;SDS011;26951;47.338;9.196;2024-03-07T08:19:18;5.95;;;4.80;;
41219;SDS011;26951;47.338;9.196;2024-03-07T08:25:49;7.60;;;4.88;;
41219;SDS011;26951;47.338;9.196;2024-03-07T08:28:34;8.43;;;5.10;;
41219;SDS011;26951;47.338;9.196;2024-03-07T08:31:19;7.55;;;4.88;;
41219;SDS011;26951;47.338;9.196;2024-03-07T08:34:03;5.22;;;3.92;;
41219;SDS011;26951;47.338;9.196;2024-03-07T08:36:47;6.05;;;4.07;;
41219;SDS011;26951;47.338;9.196;2024-03-07T08:39:31;6.95;;;4.47;;
41219;SDS011;26951;47.338;9.196;2024-03-07T08:42:15;5.90;;;4.45;;
41219;SDS011;26951;47.338;9.196;2024-03-07T08:45:01;6.25;;;4.43;;
41219;SDS011;26951;47.338;9.196;2024-03-07T08:47:50;6.55;;;4.93;;
41219;SDS011;26951;47.338;9.196;2024-03-07T08:50:35;7.05;;;4.65;;
41219;SDS011;26951;47.338;9.196;2024-03-07T08:53:21;6.50;;;4.57;;
41219;SDS011;26951;47.338;9.196;2024-03-07T08:56:05;7.25;;;4.65;;
41219;SDS011;26951;47.338;9.196;2024-03-07T08:58:50;8.30;;;5.33;;
41219;SDS011;26951;47.338;9.196;2024-03-07T09:01:34;6.65;;;4.43;;
41219;SDS011;26951;47.338;9.196;2024-03-07T09:04:18;7.47;;;5.20;;
41219;SDS011;26951;47.338;9.196;2024-03-07T09:07:02;7.25;;;5.05;;
41219;SDS011;26951;47.338;9.196;2024-03-07T09:09:47;8.18;;;5.97;;
41219;SDS011;26951;47.338;9.196;2024-03-07T09:12:31;8.65;;;5.57;;
41219;SDS011;26951;47.338;9.196;2024-03-07T09:15:15;7.93;;;5.35;;
41219;SDS011;26951;47.338;9.196;2024-03-07T09:18:05;8.23;;;5.75;;
41219;SDS011;26951;47.338;9.196;2024-03-07T09:20:49;6.72;;;4.85;;
41219;SDS011;26951;47.338;9.196;2024-03-07T09:23:33;8.02;;;5.35;;
41219;SDS011;26951;47.338;9.196;2024-03-07T09:26:17;7.63;;;5.88;;
41219;SDS011;26951;47.338;9.196;2024-03-07T09:29:02;7.70;;;5.40;;
41219;SDS011;26951;47.338;9.196;2024-03-07T09:31:49;7.70;;;5.65;;
41219;SDS011;26951;47.338;9.196;2024-03-07T09:34:36;7.13;;;5.40;;
41219;SDS011;26951;47.338;9.196;2024-03-07T09:37:20;6.15;;;5.10;;
41219;SDS011;26951;47.338;9.196;2024-03-07T09:40:07;6.88;;;5.07;;
41219;SDS011;26951;47.338;9.196;2024-03-07T09:42:55;7.32;;;5.20;;
41219;SDS011;26951;47.338;9.196;2024-03-07T09:45:41;8.65;;;5.47;;
41219;SDS011;26951;47.338;9.196;2024-03-07T09:48:26;8.52;;;5.50;;
41219;SDS011;26951;47.338;9.196;2024-03-07T09:51:11;7.20;;;5.65;;
41219;SDS011;26951;47.338;9.196;2024-03-07T09:53:59;7.28;;;5.25;;
41219;SDS011;26951;47.338;9.196;2024-03-07T09:56:43;8.00;;;5.75;;
41219;SDS011;26951;47.338;9.196;2024-03-07T09:59:28;8.32;;;5.60;;
41219;SDS011;26951;47.338;9.196;2024-03-07T10:02:19;9.00;;;6.38;;
41219;SDS011;26951;47.338;9.196;2024-03-07T10:05:04;8.98;;;6.60;;
41219;SDS011;26951;47.338;9.196;2024-03-07T10:07:50;8.85;;;5.93;;
41219;SDS011;26951;47.338;9.196;2024-03-07T10:10:36;7.78;;;6.00;;
41219;SDS011;26951;47.338;9.196;2024-03-07T10:13:22;8.57;;;6.40;;
41219;SDS011;26951;47.338;9.196;2024-03-07T10:16:07;8.50;;;6.28;;
41219;SDS011;26951;47.338;9.196;2024-03-07T10:18:51;7.60;;;5.60;;
41219;SDS011;26951;47.338;9.196;2024-03-07T10:21:35;6.78;;;5.55;;
41219;SDS011;26951;47.338;9.196;2024-03-07T10:24:23;7.07;;;4.78;;
41219;SDS011;26951;47.338;9.196;2024-03-07T10:27:08;7.65;;;5.63;;
41219;SDS011;26951;47.338;9.196;2024-03-07T10:29:52;9.45;;;6.35;;
41219;SDS011;26951;47.338;9.196;2024-03-07T10:32:36;8.38;;;6.20;;
41219;SDS011;26951;47.338;9.196;2024-03-07T10:35:21;8.10;;;6.05;;
41219;SDS011;26951;47.338;9.196;2024-03-07T10:38:08;9.20;;;6.63;;
41219;SDS011;26951;47.338;9.196;2024-03-07T10:40:55;9.15;;;6.80;;
41219;SDS011;26951;47.338;9.196;2024-03-07T10:43:40;8.82;;;6.22;;
41219;SDS011;26951;47.338;9.196;2024-03-07T10:46:26;7.57;;;5.82;;
41219;SDS011;26951;47.338;9.196;2024-03-07T10:49:12;7.10;;;5.50;;
41219;SDS011;26951;47.338;9.196;2024-03-07T10:52:03;9.15;;;6.30;;
41219;SDS011;26951;47.338;9.196;2024-03-07T10:55:00;8.77;;;6.20;;
41219;SDS011;26951;47.338;9.196;2024-03-07T10:58:04;8.40;;;6.03;;
41219;SDS011;26951;47.338;9.196;2024-03-07T11:01:15;8.43;;;5.63;;
41219;SDS011;26951;47.338;9.196;2024-03-07T11:04:02;9.25;;;6.75;;
41219;SDS011;26951;47.338;9.196;2024-03-07T11:06:50;8.02;;;6.10;;
41219;SDS011;26951;47.338;9.196;2024-03-07T11:09:34;8.88;;;6.43;;
41219;SDS011;26951;47.338;9.196;2024-03-07T11:12:19;9.88;;;6.63;;
41219;SDS011;26951;47.338;9.196;2024-03-07T11:15:07;8.43;;;6.05;;
41219;SDS011;26951;47.338;9.196;2024-03-07T11:17:58;9.50;;;7.30;;
41219;SDS011;26951;47.338;9.196;2024-03-07T11:20:43;9.75;;;7.30;;
41219;SDS011;26951;47.338;9.196;2024-03-07T11:23:30;9.25;;;7.03;;
41219;SDS011;26951;47.338;9.196;2024-03-07T11:26:25;9.60;;;7.10;;
41219;SDS011;26951;47.338;9.196;2024-03-07T11:29:38;9.30;;;6.72;;
41219;SDS011;26951;47.338;9.196;2024-03-07T11:32:19;9.77;;;7.07;;
41219;SDS011;26951;47.338;9.196;2024-03-07T11:35:13;10.50;;;8.18;;
41219;SDS011;26951;47.338;9.196;2024-03-07T11:37:58;9.35;;;6.88;;
41219;SDS011;26951;47.338;9.196;2024-03-07T11:40:42;8.98;;;6.70;;
41219;SDS011;26951;47.338;9.196;2024-03-07T11:43:27;9.63;;;7.43;;
41219;SDS011;26951;47.338;9.196;2024-03-07T11:46:11;9.00;;;6.82;;
41219;SDS011;26951;47.338;9.196;2024-03-07T11:49:00;10.75;;;6.80;;
41219;SDS011;26951;47.338;9.196;2024-03-07T11:51:44;10.98;;;7.53;;
41219;SDS011;26951;47.338;9.196;2024-03-07T11:54:28;9.05;;;6.40;;
41219;SDS011;26951;47.338;9.196;2024-03-07T11:57:17;8.45;;;6.75;;
41219;SDS011;26951;47.338;9.196;2024-03-07T12:00:10;8.05;;;6.32;;
41219;SDS011;26951;47.338;9.196;2024-03-07T12:02:55;9.77;;;7.07;;
41219;SDS011;26951;47.338;9.196;2024-03-07T12:05:40;8.32;;;6.80;;
41219;SDS011;26951;47.338;9.196;2024-03-07T12:08:25;10.70;;;7.68;;
41219;SDS011;26951;47.338;9.196;2024-03-07T12:11:10;10.57;;;6.97;;
41219;SDS011;26951;47.338;9.196;2024-03-07T12:13:59;9.27;;;6.75;;
41219;SDS011;26951;47.338;9.196;2024-03-07T12:16:43;8.52;;;6.65;;
41219;SDS011;26951;47.338;9.196;2024-03-07T12:19:27;10.70;;;7.75;;
41219;SDS011;26951;47.338;9.196;2024-03-07T12:22:12;9.10;;;6.93;;
41219;SDS011;26951;47.338;9.196;2024-03-07T12:25:00;10.18;;;7.20;;
41219;SDS011;26951;47.338;9.196;2024-03-07T12:28:04;9.40;;;7.28;;
41219;SDS011;26951;47.338;9.196;2024-03-07T12:30:49;7.57;;;5.65;;
41219;SDS011;26951;47.338;9.196;2024-03-07T12:33:35;8.40;;;6.10;;
41219;SDS011;26951;47.338;9.196;2024-03-07T12:36:22;8.57;;;6.10;;
41219;SDS011;26951;47.338;9.196;2024-03-07T12:39:22;9.13;;;6.57;;
41219;SDS011;26951;47.338;9.196;2024-03-07T12:42:16;9.57;;;7.55;;
41219;SDS011;26951;47.338;9.196;2024-03-07T12:45:01;7.45;;;6.10;;
41219;SDS011;26951;47.338;9.196;2024-03-07T12:47:48;8.05;;;5.97;;
41219;SDS011;26951;47.338;9.196;2024-03-07T12:50:38;8.90;;;6.25;;
41219;SDS011;26951;47.338;9.196;2024-03-07T12:53:24;8.07;;;5.70;;
41219;SDS011;26951;47.338;9.196;2024-03-07T12:56:12;8.70;;;6.07;;
41219;SDS011;26951;47.338;9.196;2024-03-07T12:58:59;8.65;;;6.95;;
41219;SDS011;26951;47.338;9.196;2024-03-07T13:01:45;7.82;;;6.50;;
41219;SDS011;26951;47.338;9.196;2024-03-07T13:04:31;8.38;;;6.43;;
41219;SDS011;26951;47.338;9.196;2024-03-07T13:07:15;10.93;;;6.28;;
41219;SDS011;26951;47.338;9.196;2024-03-07T13:09:59;7.25;;;5.35;;
41219;SDS011;26951;47.338;9.196;2024-03-07T13:12:44;6.80;;;5.53;;
41219;SDS011;26951;47.338;9.196;2024-03-07T13:15:32;7.80;;;5.85;;
41219;SDS011;26951;47.338;9.196;2024-03-07T13:18:16;7.32;;;5.55;;
41219;SDS011;26951;47.338;9.196;2024-03-07T13:21:01;5.75;;;5.05;;
41219;SDS011;26951;47.338;9.196;2024-03-07T13:23:50;7.90;;;6.28;;
41219;SDS011;26951;47.338;9.196;2024-03-07T13:26:34;7.93;;;6.28;;
41219;SDS011;26951;47.338;9.196;2024-03-07T13:32:13;7.25;;;5.53;;
41219;SDS011;26951;47.338;9.196;2024-03-07T13:34:58;7.37;;;5.87;;
41219;SDS011;26951;47.338;9.196;2024-03-07T13:37:45;8.80;;;6.70;;
41219;SDS011;26951;47.338;9.196;2024-03-07T13:40:30;8.70;;;6.35;;
41219;SDS011;26951;47.338;9.196;2024-03-07T13:43:14;7.57;;;6.10;;
41219;SDS011;26951;47.338;9.196;2024-03-07T13:45:58;8.65;;;6.60;;
41219;SDS011;26951;47.338;9.196;2024-03-07T13:48:46;9.43;;;6.40;;
41219;SDS011;26951;47.338;9.196;2024-03-07T13:51:30;8.38;;;5.93;;
41219;SDS011;26951;47.338;9.196;2024-03-07T13:54:14;9.73;;;7.30;;
41219;SDS011;26951;47.338;9.196;2024-03-07T13:57:24;9.48;;;6.72;;
41219;SDS011;26951;47.338;9.196;2024-03-07T14:03:36;11.15;;;7.13;;
41219;SDS011;26951;47.338;9.196;2024-03-07T14:23:01;11.07;;;7.38;;
41219;SDS011;26951;47.338;9.196;2024-03-07T14:29:12;10.82;;;6.93;;
41219;SDS011;26951;47.338;9.196;2024-03-07T14:32:15;9.38;;;6.35;;
41219;SDS011;26951;47.338;9.196;2024-03-07T14:35:03;8.90;;;7.22;;
41219;SDS011;26951;47.338;9.196;2024-03-07T14:41:00;8.57;;;5.97;;
41219;SDS011;26951;47.338;9.196;2024-03-07T14:43:44;9.30;;;6.28;;
41219;SDS011;26951;47.338;9.196;2024-03-07T14:46:28;12.23;;;8.07;;
41219;SDS011;26951;47.338;9.196;2024-03-07T14:49:14;11.43;;;7.95;;
41219;SDS011;26951;47.338;9.196;2024-03-07T14:52:00;11.13;;;7.72;;
41219;SDS011;26951;47.338;9.196;2024-03-07T14:54:46;10.13;;;6.82;;
41219;SDS011;26951;47.338;9.196;2024-03-07T14:57:31;9.73;;;7.15;;
41219;SDS011;26951;47.338;9.196;2024-03-07T15:00:15;10.77;;;7.57;;
41219;SDS011;26951;47.338;9.196;2024-03-07T15:03:03;9.68;;;7.53;;
41219;SDS011;26951;47.338;9.196;2024-03-07T15:05:50;8.30;;;7.30;;
41219;SDS011;26951;47.338;9.196;2024-03-07T15:08:35;9.98;;;6.80;;
41219;SDS011;26951;47.338;9.196;2024-03-07T15:11:22;9.60;;;6.47;;
41219;SDS011;26951;47.338;9.196;2024-03-07T15:14:12;10.95;;;6.82;;
41219;SDS011;26951;47.338;9.196;2024-03-07T15:16:56;10.13;;;7.45;;
41219;SDS011;26951;47.338;9.196;2024-03-07T15:19:40;11.13;;;7.35;;
41219;SDS011;26951;47.338;9.196;2024-03-07T15:22:24;10.40;;;6.90;;
41219;SDS011;26951;47.338;9.196;2024-03-07T15:25:08;10.30;;;7.03;;
41219;SDS011;26951;47.338;9.196;2024-03-07T15:27:56;11.30;;;7.28;;
41219;SDS011;26951;47.338;9.196;2024-03-07T15:30:41;10.25;;;7.40;;
41219;SDS011;26951;47.338;9.196;2024-03-07T15:33:26;11.13;;;8.15;;
41219;SDS011;26951;47.338;9.196;2024-03-07T15:36:10;13.82;;;8.23;;
41219;SDS011;26951;47.338;9.196;2024-03-07T15:38:54;10.57;;;7.95;;
41219;SDS011;26951;47.338;9.196;2024-03-07T15:41:41;11.82;;;7.38;;
41219;SDS011;26951;47.338;9.196;2024-03-07T15:44:25;10.05;;;6.43;;
41219;SDS011;26951;47.338;9.196;2024-03-07T15:47:09;12.05;;;8.13;;
41219;SDS011;26951;47.338;9.196;2024-03-07T15:49:53;11.35;;;7.68;;
41219;SDS011;26951;47.338;9.196;2024-03-07T15:52:41;12.25;;;7.68;;
41219;SDS011;26951;47.338;9.196;2024-03-07T15:55:25;12.85;;;8.18;;
41219;SDS011;26951;47.338;9.196;2024-03-07T15:58:11;11.68;;;7.80;;
41219;SDS011;26951;47.338;9.196;2024-03-07T16:00:56;11.55;;;7.85;;
41219;SDS011;26951;47.338;9.196;2024-03-07T16:03:41;12.70;;;7.30;;
41219;SDS011;26951;47.338;9.196;2024-03-07T16:06:25;14.80;;;7.78;;
41219;SDS011;26951;47.338;9.196;2024-03-07T16:09:09;11.80;;;7.28;;
41219;SDS011;26951;47.338;9.196;2024-03-07T16:11:56;9.30;;;6.72;;
41219;SDS011;26951;47.338;9.196;2024-03-07T16:14:41;11.68;;;7.90;;
41219;SDS011;26951;47.338;9.196;2024-03-07T16:17:25;11.18;;;7.38;;
41219;SDS011;26951;47.338;9.196;2024-03-07T16:20:09;12.00;;;7.68;;
41219;SDS011;26951;47.338;9.196;2024-03-07T16:22:57;10.90;;;7.57;;
41219;SDS011;26951;47.338;9.196;2024-03-07T16:25:41;11.20;;;7.30;;
41219;SDS011;26951;47.338;9.196;2024-03-07T16:28:25;11.93;;;6.80;;
41219;SDS011;26951;47.338;9.196;2024-03-07T16:31:11;11.35;;;7.00;;
41219;SDS011;26951;47.338;9.196;2024-03-07T16:33:56;11.48;;;7.72;;
41219;SDS011;26951;47.338;9.196;2024-03-07T16:36:42;12.15;;;7.57;;
41219;SDS011;26951;47.338;9.196;2024-03-07T16:39:26;11.32;;;7.78;;
41219;SDS011;26951;47.338;9.196;2024-03-07T16:42:10;10.65;;;7.15;;
41219;SDS011;26951;47.338;9.196;2024-03-07T16:47:57;11.43;;;7.20;;
41219;SDS011;26951;47.338;9.196;2024-03-07T16:50:43;12.25;;;7.57;;
41219;SDS011;26951;47.338;9.196;2024-03-07T16:53:27;12.55;;;8.02;;
41219;SDS011;26951;47.338;9.196;2024-03-07T16:56:16;13.75;;;7.90;;
41219;SDS011;26951;47.338;9.196;2024-03-07T16:59:01;11.35;;;7.60;;
41219;SDS011;26951;47.338;9.196;2024-03-07T17:01:48;13.73;;;7.85;;
41219;SDS011;26951;47.338;9.196;2024-03-07T17:04:34;10.05;;;6.88;;
41219;SDS011;26951;47.338;9.196;2024-03-07T17:07:19;13.15;;;7.80;;
41219;SDS011;26951;47.338;9.196;2024-03-07T17:10:03;13.77;;;7.68;;
41219;SDS011;26951;47.338;9.196;2024-03-07T17:12:50;13.15;;;8.38;;
41219;SDS011;26951;47.338;9.196;2024-03-07T17:15:35;13.23;;;8.27;;
41219;SDS011;26951;47.338;9.196;2024-03-07T17:18:20;10.82;;;7.47;;
41219;SDS011;26951;47.338;9.196;2024-03-07T17:21:05;11.25;;;7.47;;
41219;SDS011;26951;47.338;9.196;2024-03-07T17:23:50;13.65;;;8.43;;
41219;SDS011;26951;47.338;9.196;2024-03-07T17:26:34;10.90;;;7.00;;
41219;SDS011;26951;47.338;9.196;2024-03-07T17:29:18;10.07;;;7.15;;
41219;SDS011;26951;47.338;9.196;2024-03-07T17:32:05;12.98;;;7.75;;